sensor_id;sensor_type;location;lat;lon;timestamp;P1;durP1;ratioP1;P2;durP2;ratioP2
12373;SDS011;6251;51.762;8.660;2023-08-06T01:02:54;9.32;;;7.20;;
12373;SDS011;6251;51.762;8.660;2023-08-06T01:12:58;15.20;;;8.23;;
12373;SDS011;6251;51.762;8.660;2023-08-06T04:06:34;13.80;;;9.52;;
12373;SDS011;6251;51.762;8.660;2023-08-06T04:16:34;13.20;;;9.75;;
12373;SDS011;6251;51.762;8.660;2023-08-06T04:26:35;12.82;;;9.63;;
12373;SDS011;6251;51.762;8.660;2023-08-06T04:36:36;17.25;;;10.90;;
12373;SDS011;6251;51.762;8.660;2023-08-06T04:46:37;21.10;;;12.48;;
12373;SDS011;6251;51.762;8.660;2023-08-06T04:56:38;16.08;;;10.88;;
12373;SDS011;6251;51.762;8.660;2023-08-06T05:06:38;19.23;;;11.27;;
12373;SDS011;6251;51.762;8.660;2023-08-06T05:16:39;19.23;;;12.70;;
12373;SDS011;6251;51.762;8.660;2023-08-06T05:26:39;20.98;;;13.00;;
12373;SDS011;6251;51.762;8.660;2023-08-06T05:36:40;12.70;;;10.13;;
12373;SDS011;6251;51.762;8.660;2023-08-06T05:46:40;15.93;;;11.60;;
12373;SDS011;6251;51.762;8.660;2023-08-06T05:56:41;22.35;;;13.18;;
12373;SDS011;6251;51.762;8.660;2023-08-06T06:06:42;16.85;;;11.63;;
12373;SDS011;6251;51.762;8.660;2023-08-06T06:16:42;18.43;;;12.30;;
12373;SDS011;6251;51.762;8.660;2023-08-06T06:26:43;17.17;;;11.50;;
12373;SDS011;6251;51.762;8.660;2023-08-06T06:36:43;13.00;;;9.75;;
12373;SDS011;6251;51.762;8.660;2023-08-06T06:46:44;11.38;;;9.60;;
12373;SDS011;6251;51.762;8.660;2023-08-06T06:56:45;11.05;;;8.75;;
12373;SDS011;6251;51.762;8.660;2023-08-06T07:06:45;10.88;;;9.77;;
12373;SDS011;6251;51.762;8.660;2023-08-06T07:16:47;9.00;;;8.10;;
12373;SDS011;6251;51.762;8.660;2023-08-06T07:26:47;11.20;;;9.13;;
12373;SDS011;6251;51.762;8.660;2023-08-06T07:36:48;9.77;;;8.18;;
12373;SDS011;6251;51.762;8.660;2023-08-06T07:46:49;13.57;;;7.65;;
12373;SDS011;6251;51.762;8.660;2023-08-06T07:56:50;11.30;;;8.50;;
12373;SDS011;6251;51.762;8.660;2023-08-06T08:06:50;7.70;;;7.00;;
12373;SDS011;6251;51.762;8.660;2023-08-06T08:16:51;7.35;;;6.50;;
12373;SDS011;6251;51.762;8.660;2023-08-06T08:26:52;11.23;;;7.00;;
12373;SDS011;6251;51.762;8.660;2023-08-06T08:36:53;8.27;;;6.85;;
12373;SDS011;6251;51.762;8.660;2023-08-06T08:46:53;6.55;;;5.75;;
12373;SDS011;6251;51.762;8.660;2023-08-06T08:56:54;5.37;;;4.85;;
12373;SDS011;6251;51.762;8.660;2023-08-06T09:06:59;4.65;;;4.32;;
12373;SDS011;6251;51.762;8.660;2023-08-06T09:17:00;5.40;;;4.65;;
12373;SDS011;6251;51.762;8.660;2023-08-06T09:27:01;5.78;;;4.82;;
12373;SDS011;6251;51.762;8.660;2023-08-06T09:37:03;6.00;;;4.50;;
12373;SDS011;6251;51.762;8.660;2023-08-06T09:47:18;4.43;;;4.12;;
12373;SDS011;6251;51.762;8.660;2023-08-06T09:57:20;5.53;;;4.68;;
12373;SDS011;6251;51.762;8.660;2023-08-06T10:07:21;4.03;;;3.78;;
12373;SDS011;6251;51.762;8.660;2023-08-06T10:17:24;3.92;;;3.70;;
12373;SDS011;6251;51.762;8.660;2023-08-06T10:27:29;3.60;;;3.40;;
12373;SDS011;6251;51.762;8.660;2023-08-06T10:37:37;3.40;;;3.10;;
12373;SDS011;6251;51.762;8.660;2023-08-06T10:47:38;2.83;;;2.70;;
12373;SDS011;6251;51.762;8.660;2023-08-06T10:57:41;3.03;;;2.80;;
12373;SDS011;6251;51.762;8.660;2023-08-06T11:07:42;2.70;;;2.60;;
12373;SDS011;6251;51.762;8.660;2023-08-06T11:17:43;2.60;;;2.50;;
12373;SDS011;6251;51.762;8.660;2023-08-06T11:27:43;2.30;;;2.20;;
12373;SDS011;6251;51.762;8.660;2023-08-06T11:37:45;2.85;;;2.55;;
12373;SDS011;6251;51.762;8.660;2023-08-06T11:47:49;10.20;;;3.45;;
12373;SDS011;6251;51.762;8.660;2023-08-06T11:57:53;2.22;;;2.12;;
12373;SDS011;6251;51.762;8.660;2023-08-06T12:07:57;4.30;;;2.70;;
12373;SDS011;6251;51.762;8.660;2023-08-06T12:17:59;3.15;;;2.80;;
12373;SDS011;6251;51.762;8.660;2023-08-06T12:28:00;2.60;;;2.50;;
12373;SDS011;6251;51.762;8.660;2023-08-06T12:38:00;5.62;;;2.78;;
12373;SDS011;6251;51.762;8.660;2023-08-06T12:48:01;2.75;;;2.58;;
12373;SDS011;6251;51.762;8.660;2023-08-06T12:58:02;3.17;;;3.00;;
12373;SDS011;6251;51.762;8.660;2023-08-06T13:08:02;3.62;;;3.40;;
12373;SDS011;6251;51.762;8.660;2023-08-06T13:18:03;3.87;;;3.67;;
12373;SDS011;6251;51.762;8.660;2023-08-06T13:28:04;3.60;;;3.33;;
12373;SDS011;6251;51.762;8.660;2023-08-06T13:38:06;2.75;;;2.65;;
12373;SDS011;6251;51.762;8.660;2023-08-06T13:48:07;2.60;;;2.40;;
12373;SDS011;6251;51.762;8.660;2023-08-06T13:58:08;1.85;;;1.70;;
12373;SDS011;6251;51.762;8.660;2023-08-06T14:08:08;2.33;;;2.20;;
12373;SDS011;6251;51.762;8.660;2023-08-06T14:18:09;2.25;;;2.15;;
12373;SDS011;6251;51.762;8.660;2023-08-06T14:28:09;2.37;;;2.28;;
12373;SDS011;6251;51.762;8.660;2023-08-06T14:38:10;2.60;;;2.50;;
12373;SDS011;6251;51.762;8.660;2023-08-06T14:48:11;2.70;;;2.60;;
12373;SDS011;6251;51.762;8.660;2023-08-06T14:58:11;3.62;;;2.87;;
12373;SDS011;6251;51.762;8.660;2023-08-06T15:08:12;3.58;;;3.28;;
12373;SDS011;6251;51.762;8.660;2023-08-06T15:18:12;4.05;;;3.75;;
12373;SDS011;6251;51.762;8.660;2023-08-06T15:28:13;3.22;;;3.03;;
12373;SDS011;6251;51.762;8.660;2023-08-06T15:38:14;2.63;;;2.23;;
12373;SDS011;6251;51.762;8.660;2023-08-06T15:48:15;3.15;;;2.95;;
12373;SDS011;6251;51.762;8.660;2023-08-06T15:58:15;3.23;;;3.07;;
12373;SDS011;6251;51.762;8.660;2023-08-06T16:08:16;4.00;;;3.70;;
12373;SDS011;6251;51.762;8.660;2023-08-06T16:18:17;3.67;;;3.37;;
12373;SDS011;6251;51.762;8.660;2023-08-06T16:28:17;4.55;;;2.70;;
12373;SDS011;6251;51.762;8.660;2023-08-06T16:38:18;2.75;;;2.58;;
12373;SDS011;6251;51.762;8.660;2023-08-06T16:48:19;2.25;;;2.15;;
12373;SDS011;6251;51.762;8.660;2023-08-06T16:58:26;3.30;;;3.10;;
12373;SDS011;6251;51.762;8.660;2023-08-06T17:08:27;3.08;;;2.87;;
12373;SDS011;6251;51.762;8.660;2023-08-06T17:18:33;4.45;;;4.05;;
12373;SDS011;6251;51.762;8.660;2023-08-06T17:28:34;5.65;;;4.20;;
12373;SDS011;6251;51.762;8.660;2023-08-06T17:38:38;3.67;;;3.35;;
12373;SDS011;6251;51.762;8.660;2023-08-06T17:48:38;4.03;;;3.58;;
12373;SDS011;6251;51.762;8.660;2023-08-06T17:58:39;4.65;;;3.83;;
12373;SDS011;6251;51.762;8.660;2023-08-06T18:08:39;6.80;;;4.28;;
12373;SDS011;6251;51.762;8.660;2023-08-06T18:18:40;5.68;;;5.18;;
12373;SDS011;6251;51.762;8.660;2023-08-06T18:28:41;7.68;;;6.22;;
12373;SDS011;6251;51.762;8.660;2023-08-06T18:38:44;14.27;;;9.20;;
12373;SDS011;6251;51.762;8.660;2023-08-06T18:48:49;9.18;;;7.28;;
12373;SDS011;6251;51.762;8.660;2023-08-06T18:58:50;9.13;;;7.40;;
12373;SDS011;6251;51.762;8.660;2023-08-06T19:08:50;14.30;;;8.07;;
12373;SDS011;6251;51.762;8.660;2023-08-06T19:18:51;11.85;;;8.10;;
12373;SDS011;6251;51.762;8.660;2023-08-06T19:28:51;16.10;;;7.85;;
12373;SDS011;6251;51.762;8.660;2023-08-06T19:38:52;15.00;;;8.00;;
12373;SDS011;6251;51.762;8.660;2023-08-06T19:48:52;11.50;;;7.90;;
12373;SDS011;6251;51.762;8.660;2023-08-06T19:58:53;17.48;;;9.27;;
12373;SDS011;6251;51.762;8.660;2023-08-06T20:08:54;11.00;;;7.97;;
12373;SDS011;6251;51.762;8.660;2023-08-06T20:18:54;9.23;;;7.00;;
12373;SDS011;6251;51.762;8.660;2023-08-06T20:28:55;8.40;;;6.50;;
12373;SDS011;6251;51.762;8.660;2023-08-06T20:38:57;9.80;;;7.12;;
12373;SDS011;6251;51.762;8.660;2023-08-06T20:48:58;11.57;;;8.38;;
12373;SDS011;6251;51.762;8.660;2023-08-06T20:58:58;14.52;;;8.43;;
12373;SDS011;6251;51.762;8.660;2023-08-06T23:00:53;4.68;;;3.00;;
12373;SDS011;6251;51.762;8.660;2023-08-06T23:10:55;6.70;;;2.80;;
